• Join FlightAware (Why Join?)
  • Login
  • US Flag 
08:08PM EDT


 

Airport Tracker/Info


-or-


 

Live Flight TrackerFlight Track Log ✈ AAL1554 ✈ 15-Jun-2013 ✈ KSNA - KDFW

Flight Track Log - Related Links

Times and Time Zones

All times are in EDT time to prevent confusion due to time zone crossing. See the AAL1554 flight status page for this flight to view local times or setup timezone preferences in your user account.

Time Position Orientation Groundspeed Altitude Reporting Facility
EDT Latitude Longitude Course Direction KTS MPH feet Rate Location/Type
05:10PM 33.6333 -117.8833 90° East 167 192 1,700  Level Southern California TRACON
05:10PM 33.6186 -117.8933 209° Southwest 191 220 2,300 2,160 Climbing Los Angeles Center
05:11PM 33.5514 -117.8869 175° South 242 278 5,000 2,460 Climbing Los Angeles Center
05:12PM 33.4929 -117.6396 54° Northeast  Level FlightAware Approximate
05:12PM 33.4956 -117.8306 140° Southeast 271 312 7,500  Level Los Angeles Center
05:13PM 33.5511 -117.5083 66° East  Level FlightAware Approximate
05:13PM 33.5122 -117.7361 78° East 292 336 10,400  Level Los Angeles Center
05:14PM 33.5833 -117.3668 90° East  Level FlightAware Approximate
05:14PM 33.5483 -117.6081 71° East 330 380 12,800  Level Los Angeles Center
05:15PM 33.5833 -117.2173 90° East  Level FlightAware Approximate
05:15PM 33.5792 -117.4933 72° East 357 411 15,300  Level Los Angeles Center
05:17PM 33.5883 -117.3686 85° East 379 436 17,500 2,100 Climbing Los Angeles Center
05:18PM 33.5919 -117.2381 88° East 394 453 19,700 2,040 Climbing Los Angeles Center
05:19PM 33.5978 -117.1019 87° East 406 467 21,800 1,980 Climbing Los Angeles Center
05:20PM 33.6019 -116.9597 88° East 425 489 23,800 1,920 Climbing Los Angeles Center
05:21PM 33.6086 -116.7914 87° East 439 505 25,800 1,620 Climbing Los Angeles Center
05:22PM 33.6128 -116.6386 88° East 455 524 27,200 1,260 Climbing Los Angeles Center
05:23PM 33.6189 -116.4808 87° East 469 540 28,500 1,260 Climbing Los Angeles Center
05:24PM 33.6236 -116.3186 88° East 482 555 29,900 1,260 Climbing Los Angeles Center
05:25PM 33.6172 -116.1539 93° East 491 565 31,200 1,380 Climbing Los Angeles Center
05:26PM 33.5958 -115.9900 99° East 492 566 32,800 1,500 Climbing Los Angeles Center
05:27PM 33.5725 -115.7986 98° East 485 558 34,300 1,200 Climbing Los Angeles Center
05:28PM 33.5494 -115.6356 100° East 493 567 35,300 840 Climbing Los Angeles Center
05:29PM 33.5272 -115.4708 99° East 498 573 36,100 780 Climbing Los Angeles Center
05:30PM 33.5058 -115.3067 99° East 499 574 37,000 360 Climbing Los Angeles Center
05:31PM 33.4831 -115.1414 99° East 501 577 36,900  Descending Los Angeles Center
05:32PM 33.4597 -114.9781 100° East 499 574 37,000  Climbing Los Angeles Center
05:33PM 33.4375 -114.8144 99° East 498 573 37,000 -60 Level Los Angeles Center
05:34PM 33.4169 -114.6531 99° East 493 567 36,900  Descending Los Angeles Center
05:35PM 33.3897 -114.4594 100° East 493 567 37,000  Climbing Los Angeles Center
05:36PM 33.3800 -114.3731 98° East 492 566 37,000  Level Albuquerque Center
05:37PM 33.3650 -114.2081 96° East 496 571 37,000  Level Albuquerque Center
05:38PM 33.3500 -114.0450 96° East 495 570 37,000 -60 Level Albuquerque Center
05:39PM 33.3353 -113.8792 96° East 499 574 36,900  Descending Albuquerque Center
05:40PM 33.3161 -113.6836 97° East 495 570 37,000  Climbing Albuquerque Center
05:41PM 33.3014 -113.5203 96° East 495 570 37,000 -60 Level Albuquerque Center
05:42PM 33.2847 -113.3564 97° East 495 570 36,900  Descending Albuquerque Center
05:43PM 33.2681 -113.1922 97° East 495 570 37,000  Climbing Albuquerque Center
05:44PM 33.2528 -113.0297 96° East 493 567 37,000  Level Albuquerque Center
05:45PM 33.2364 -112.8661 97° East 494 568 37,000  Level Albuquerque Center
05:46PM 33.2189 -112.7028 97° East 494 568 37,000  Level Albuquerque Center
05:47PM 33.2192 -112.5283 90° East 496 571 37,000  Level Albuquerque Center
05:48PM 33.2258 -112.3647 87° East 496 571 37,000  Level Albuquerque Center
05:49PM 33.2308 -112.2008 88° East 498 573 37,000  Level Albuquerque Center
05:50PM 33.2342 -112.0364 89° East 499 574 37,000  Level Albuquerque Center
05:51PM 33.2383 -111.8411 88° East 495 570 37,000  Level Albuquerque Center
05:52PM 33.2422 -111.6781 88° East 495 570 37,000  Level Albuquerque Center
05:53PM 33.2467 -111.5158 88° East 494 568 37,000  Level Albuquerque Center
05:54PM 33.2492 -111.3550 89° East 488 562 37,000  Level Albuquerque Center
05:55PM 33.2525 -111.1922 89° East 492 566 37,000  Level Albuquerque Center
05:56PM 33.2564 -111.0289 88° East 494 568 37,000  Level Albuquerque Center
05:57PM 33.2603 -110.8656 88° East 495 570 37,000  Level Albuquerque Center
05:58PM 33.2667 -110.6806 88° East 494 568 37,000  Level Albuquerque Center
05:59PM 33.2717 -110.5186 88° East 492 566 37,000  Level Albuquerque Center
06:00PM 33.2758 -110.3572 88° East 490 564 37,000  Level Albuquerque Center
06:01PM 33.2819 -110.1961 87° East 490 564 37,000  Level Albuquerque Center
06:02PM 33.2986 -110.0350 83° East 492 566 37,000  Level Albuquerque Center
06:03PM 33.3322 -109.8731 76° East 501 577 37,000  Level Albuquerque Center
06:04PM 33.3533 -109.6758 83° East 502 578 37,000  Level Albuquerque Center
06:05PM 33.3561 -109.5100 89° East 504 580 37,000  Level Albuquerque Center
06:06PM 33.3486 -109.3439 93° East 503 579 37,000  Level Albuquerque Center
06:07PM 33.3308 -109.1772 97° East 505 581 37,000  Level Albuquerque Center
06:08PM 33.3117 -109.0125 98° East 502 578 37,000  Level Albuquerque Center
06:09PM 33.2914 -108.8453 98° East 504 580 37,000  Level Albuquerque Center
06:10PM 33.2669 -108.6794 100° East 506 582 37,000  Level Albuquerque Center
06:12PM 33.2317 -108.5189 105° East 501 577 37,000  Level Albuquerque Center
06:13PM 33.1911 -108.3600 107° East 501 577 37,000  Level Albuquerque Center
06:14PM 33.1458 -108.1706 106° East 500 575 37,000  Level Albuquerque Center
06:15PM 33.1158 -108.0281 104° East 498 573 37,000 -60 Level Albuquerque Center
06:16PM 33.1075 -107.8611 93° East 501 577 36,900  Descending Albuquerque Center
06:17PM 33.0936 -107.6967 96° East 499 574 37,000  Climbing Albuquerque Center
06:18PM 33.0778 -107.4981 95° East 499 574 36,900 -60 Descending Albuquerque Center
06:19PM 33.0656 -107.3342 95° East 495 570 36,900  Level Albuquerque Center
06:20PM 33.0525 -107.1700 95° East 495 570 37,000  Climbing Albuquerque Center
06:21PM 33.0386 -107.0075 96° East 493 567 36,900  Descending Albuquerque Center
06:22PM 33.0253 -106.8425 95° East 495 570 37,000  Climbing Albuquerque Center
06:23PM 33.0108 -106.6778 96° East 497 572 37,000 -60 Level Albuquerque Center
06:24PM 32.9978 -106.5150 95° East 495 570 36,900  Descending Albuquerque Center
06:25PM 32.9836 -106.3517 96° East 494 568 37,000  Climbing Albuquerque Center
06:26PM 32.9692 -106.1903 96° East 492 566 37,000  Level Albuquerque Center
06:27PM 32.9544 -106.0281 96° East 491 565 37,000 -60 Level Albuquerque Center
06:28PM 32.9369 -105.8433 96° East 490 564 36,900  Descending Albuquerque Center
06:29PM 32.9225 -105.6817 96° East 490 564 37,000  Climbing Albuquerque Center
06:30PM 32.9103 -105.5219 95° East 488 562 37,000  Level Albuquerque Center
06:31PM 32.9128 -105.3603 89° East 488 562 37,000  Level Albuquerque Center
06:32PM 32.9125 -105.1839 90° East 483 556 37,000  Level Albuquerque Center
06:33PM 32.9144 -105.0253 89° East 482 555 37,000  Level Albuquerque Center
06:34PM 32.9175 -104.8542 89° East 484 557 37,000  Level Albuquerque Center
06:35PM 32.9225 -104.6961 88° East 481 554 37,000  Level Albuquerque Center
06:36PM 32.9356 -104.5364 84° East 486 559 37,000  Level Albuquerque Center
06:37PM 32.9436 -104.3647 87° East 488 562 37,000  Level Albuquerque Center
06:38PM 32.9428 -104.2067 90° East 483 556 37,000  Level Albuquerque Center
06:39PM 32.9347 -104.0358 93° East 487 560 37,000  Level Albuquerque Center
06:40PM 32.9103 -103.8800 101° East 481 554 37,000  Level Albuquerque Center
06:41PM 32.8872 -103.7211 100° East 486 559 37,000  Level Albuquerque Center
06:42PM 32.8650 -103.5719 100° East 482 555 37,000  Level Albuquerque Center
06:43PM 32.8417 -103.4136 100° East 486 559 37,000  Level Albuquerque Center
06:44PM 32.8275 -103.3264 101° East 487 560 37,000  Level Fort Worth Center
06:45PM 32.8014 -103.1689 101° East 487 560 37,000  Level Fort Worth Center
06:46PM 32.7772 -103.0142 100° East 487 560 37,000  Level Fort Worth Center
06:47PM 32.7550 -102.8550 99° East 487 560 37,000  Level Fort Worth Center
06:48PM 32.7336 -102.7178 100° East 487 560 37,000  Level Fort Worth Center
06:49PM 32.7108 -102.5608 100° East 482 555 37,000  Level Fort Worth Center
06:50PM 32.6881 -102.4017 100° East 487 560 37,000  Level Fort Worth Center
06:51PM 32.6586 -102.2494 103° East 482 555 37,000  Level Fort Worth Center
06:52PM 32.6314 -102.0878 101° East 482 555 37,000  Level Fort Worth Center
06:53PM 32.6036 -101.9311 102° East 482 555 37,000  Level Fort Worth Center
06:54PM 32.5800 -101.7744 100° East 477 549 37,000  Level Fort Worth Center
06:55PM 32.5539 -101.6206 101° East 477 549 37,000  Level Fort Worth Center
06:56PM 32.5278 -101.4664 101° East 477 549 37,000  Level Fort Worth Center
06:57PM 32.5014 -101.3125 101° East 472 543 37,000  Level Fort Worth Center
06:58PM 32.4708 -101.1464 102° East 472 543 37,000  Level Fort Worth Center
06:59PM 32.4461 -100.9953 101° East 472 543 37,000  Level Fort Worth Center
07:00PM 32.4192 -100.8392 102° East 472 543 37,000  Level Fort Worth Center
07:01PM 32.3897 -100.6881 103° East 472 543 37,000  Level Fort Worth Center
07:02PM 32.3622 -100.5369 102° East 472 543 37,000  Level Fort Worth Center
07:03PM 32.3347 -100.3858 102° East 472 543 37,000  Level Fort Worth Center
07:04PM 32.3108 -100.2475 102° East 472 543 37,000  Level Fort Worth Center
07:05PM 32.2828 -100.0967 102° East 472 543 37,000  Level Fort Worth Center
07:06PM 32.2567 -99.9461 102° East 472 543 37,000  Level Fort Worth Center
07:07PM 32.2325 -99.7908 100° East 472 543 37,000  Level Fort Worth Center
07:08PM 32.2269 -99.6358 92° East 472 543 37,000  Level Fort Worth Center
07:09PM 32.2214 -99.4786 92° East 467 537 37,000  Level Fort Worth Center
07:10PM 32.2156 -99.3239 93° East 467 537 37,000  Level Fort Worth Center
07:11PM 32.2114 -99.1667 92° East 473 544 37,000  Level Fort Worth Center
07:12PM 32.2053 -99.0117 93° East 473 544 37,000  Level Fort Worth Center
07:13PM 32.2156 -98.8547 86° East 473 544 37,000 -1,200 Level Fort Worth Center
07:14PM 32.2506 -98.6933 76° East 468 539 34,600 -2,580 Descending Fort Worth Center
07:15PM 32.2772 -98.5389 78° East 468 539 31,900 -3,180 Descending Fort Worth Center
07:16PM 32.3097 -98.3844 76° East 468 539 28,300 -3,300 Descending Fort Worth Center
07:17PM 32.3381 -98.2297 78° East 468 539 25,400 -3,120 Descending Fort Worth Center
07:18PM 32.3639 -98.0750 79° East 473 544 22,200 -3,120 Descending Fort Worth Center
07:19PM 32.3897 -97.9422 77° East 464 534 19,200 -3,300 Descending Fort Worth Center
07:20PM 32.4172 -97.7875 78° East 442 509 15,600 -3,360 Descending Fort Worth Center
07:21PM 32.4386 -97.6719 78° East 417 480 12,500 -2,340 Descending Fort Worth Center
07:22PM 32.4617 -97.5389 78° East 384 442 11,000 -780 Descending Fort Worth Center
07:23PM 32.5078 -97.4603 55° Northeast 326 375 11,000  Level Fort Worth Center
07:24PM 32.5744 -97.3814 45° Northeast 308 354 11,000  Level Fort Worth Center
07:24PM 32.6167 -97.3333 44° Northeast 312 359 11,000  Level Dallas / Fort Worth TRACON
07:25PM 32.6286 -97.3147 53° Northeast 303 349 11,000  Level Fort Worth Center
07:26PM 32.6956 -97.2333 46° Northeast 303 349 11,000  Level Fort Worth Center
07:27PM 32.7497 -97.1739 43° Northeast 303 349 11,000 -300 Level Fort Worth Center
07:28PM 32.8331 -97.1661 North 271 312 10,500 -840 Descending Fort Worth Center
07:29PM 32.9103 -97.1636 North 263 303 9,400 -1,200 Descending Fort Worth Center
07:30PM 32.9814 -97.1658 358° North 273 314 8,200 -1,260 Descending Fort Worth Center
07:31PM 33.0586 -97.1631 North 254 292 6,900 -1,500 Descending Fort Worth Center
07:32PM 33.1333 -97.1500 North 254 292 5,400 -1,560 Descending Dallas / Fort Worth TRACON
07:32PM 33.1333 -97.1000 90° East 231 266 4,200 -1,500 Descending Dallas / Fort Worth TRACON